Palmer, AK

9:23 PM AKDT on April 25, 2015 (GMT -0800)
Gold-Key Estates | | Change Station
CLOSE
Current Station
Personal Weather Station
Location: Palmer, AK
Elevation: 203 ft
Nearby Weather Stations
Active Advisory: Fire Weather Warning Active Notice: Record Report

Elev 203 ft 61.62 °N, 149.10 °W | Updated 4 minutes ago

Clear
Clear
47.8 °F
Feels Like 48 °F
N
1.1
Wind Variable Wind from SW

Today
High -- | Low -- °F
--% Chance of Precip.
Yesterday
High -- | Low -- °F
Precip. -- in
6:03 AM 9:47 PM
First Quarter, 52% visible
Pressure 29.77 in
Visibility 10.0 miles
Clouds Clear
Windchill 48 °F
Dew Point 20 °F
Humidity 33%
Rainfall 0.00 in
Snow Depth Not available.
UV 0 out of 12
Pollen Not available.
Air Quality Not available.
Flu Activity Sporadic
METAR PAAQ 260453Z AUTO 13012KT 10SM CLR 09/M07 A2976 RMK AO2 SLP079 T00891067 TSNO

More Conditions Fewer Conditions

Pressure 29.77 in
Visibility 10.0 miles
Clouds Clear
Windchill 48 °F
Dew Point 20 °F
Humidity 33%
Rainfall 0.00 in
Snow Depth Not available.
UV 0 out of 12
Pollen Not available.
Air Quality Not available.
Flu Activity Sporadic
METAR PAAQ 260453Z AUTO 13012KT 10SM CLR 09/M07 A2976 RMK AO2 SLP079 T00891067 TSNO

More Conditions Fewer Conditions

10-Day Weather Forecast

Almanac

Astronomy

Apr. 25, 2015 Rise Set
Actual Time
Civil Twilight
Nautical Twilight
Astronomical Twilight
Moon
Length of Visible Light
Length of Day
Tomorrow will be .
, % of the Moon is Illuminated

Today's Extremes

State Highs State Lows

Community

WunderPhotos

Upload Photos

1,816,945 photos uploaded!

WunderBlogs® & News

Nearby

Air Quality

  Air Quality AQ Index Pollutant
Not available.

Snow Depth

Station Depth Elevation

Earthquake Activity

City Distance Mag. Time & Date
Minimum magnitude displayed is 2.5.

Coastal Water Temperatures

Place Temperature

Stations

Nearby Weather Stations

Station Location Temp. Windchill Dew Point Humidity Wind Precip. Elev Updated Type
                   
Fire Weather Warning
Statement as of 4:01 PM AKDT on April 25, 2015

... Red flag warning remains in effect until 10 PM akdt this
evening for low humidity across the Matanuska Valley...

* 20 ft winds... southeast 5 to 15 mph... highest out of the Knik
River Valley in the afternoon and early evening.

* Relative humidity... 15 to 25 percent.

* Timing... humidity values will approach critical values during
the late afternoon and early evening before recovering by late
evening with loss of daytime heating.

* Temperatures... in the mid 50s.

Precautionary/preparedness actions...

A red flag warning means that critical fire weather conditions
are imminent or occurring now... or will shortly. It is directed
toward fire agencies... and through them to the public.